ADDS METAR Data INFO
IDs: Format: Raw Decoded Include TAF

Data at: 1811 UTC 24 Nov 2017

KVCT 241751Z 19008KT 10SM CLR 22/04 A3002 RMK AO2 SLP163 T02220044 10228 20033 58016 $
KVCT 241651Z 19008KT 10SM CLR 20/07 A3004 RMK AO2 SLP171 T02000072 $
KVCT 241551Z 17004KT 10SM CLR 17/08 A3006 RMK AO2 SLP179 T01670083 $
KVCT 241451Z 00000KT 9SM CLR 13/08 A3006 RMK AO2 SLP179 T01280078 52010 $
KVCT 241351Z 05003KT 10SM CLR 07/05 A3005 RMK AO2 SLP176 T00720050 $
KVCT 241251Z 00000KT 10SM CLR 04/02 A3004 RMK AO2 SLP172 T00390022 $
KVCT 241151Z AUTO 00000KT 10SM CLR 04/02 A3003 RMK AO2 SLP169 T00390022 10072 20033 55004 $
KVCT 241051Z AUTO 00000KT 10SM CLR 04/02 A3002 RMK AO2 SLP166 T00440022 $
KVCT 240951Z AUTO 29003KT 4SM BR CLR 06/03 A3003 RMK AO2 SLP170 T00560033 $
KVCT 240851Z AUTO 30005KT 9SM CLR 04/03 A3004 RMK AO2 SLP173 T00440028 56013 $
KVCT 240751Z AUTO 27004KT 9SM CLR 06/03 A3006 RMK AO2 SLP177 T00560033 $
KVCT 240651Z AUTO 26004KT 6SM HZ CLR 06/03 A3007 RMK AO2 SLP182 T00610033 $
KVCT 240551Z AUTO 23003KT 9SM CLR 07/03 A3008 RMK AO2 SLP186 T00670033 10144 20067 402220011 58008 $
KVCT 240451Z AUTO 17003KT 10SM CLR 08/03 A3009 RMK AO2 SLP189 T00780033 $
KVCT 240351Z AUTO 14004KT 10SM CLR 08/03 A3010 RMK AO2 SLP191 T00830033 $
KVCT 240251Z 15004KT 10SM CLR 09/02 A3011 RMK AO2 SLP194 T00940022 51007 $
KVCT 240151Z 17004KT 10SM CLR 10/02 A3010 RMK AO2 SLP193 T01000022
KVCT 240051Z 00000KT 10SM CLR 11/03 A3009 RMK AO2 SLP190 T01110028
KVCT 232351Z 08007KT 10SM CLR 14/02 A3008 RMK AO2 SLP187 T01440017 10222 20144 55002
KVCT 232251Z 02003KT 10SM CLR 21/M01 A3007 RMK AO2 SLP183 T02061011
KVCT 232151Z 03005KT 10SM CLR 22/M02 A3008 RMK AO2 SLP185 T02171022
KVCT 232051Z 32004KT 10SM CLR 22/M02 A3009 RMK AO2 SLP188 T02171022 56031
KVCT 231951Z 32008KT 290V010 10SM CLR 21/M02 A3012 RMK AO2 SLP197 T02061022
KVCT 231851Z VRB06KT 10SM CLR 20/M02 A3014 RMK AO2 SLP206 T02001017
KVCT 231751Z VRB05KT 10SM CLR 18/M02 A3018 RMK AO2 SLP220 T01781022 10183 20011 58015
KVCT 231651Z 35007KT 10SM CLR 17/M01 A3022 RMK AO2 SLP232 T01671006
KVCT 231551Z 02006KT 10SM CLR 14/01 A3023 RMK AO2 SLP236 T01390011
KVCT 231451Z 01006KT 10SM CLR 10/01 A3023 RMK AO2 SLP235 T01000011 53006
KVCT 231351Z 34005KT 10SM CLR 05/01 A3022 RMK AO2 SLP232 T00500006
KVCT 231251Z 34005KT 10SM CLR 01/M01 A3021 RMK AO2 SLP229 T00111006
KVCT 231151Z AUTO 33005KT 10SM CLR 02/M01 A3021 RMK AO2 SLP229 T00221006 10067 20022 55000
KVCT 231051Z AUTO 35007KT 10SM CLR 03/00 A3020 RMK AO2 SLP226 T00280000
KVCT 230951Z AUTO 35005KT 10SM CLR 03/01 A3021 RMK AO2 SLP229 T00330006
KVCT 230851Z AUTO 35007KT 10SM CLR 04/01 A3021 RMK AO2 SLP229 T00390011 58011
KVCT 230751Z AUTO 32005KT 10SM CLR 03/01 A3022 RMK AO2 SLP233 T00330011
KVCT 230651Z AUTO 31006KT 10SM CLR 04/02 A3024 RMK AO2 SLP238 T00390017